createdAt,value
2023-02-28T00:00:12.901Z,94.45
2023-02-28T00:02:40.004Z,93.53
2023-02-28T00:05:07.147Z,92.98
2023-02-28T00:07:33.918Z,91.63
2023-02-28T00:10:00.931Z,88.44
2023-02-28T00:12:27.360Z,88.48
2023-02-28T00:14:53.837Z,89.41
2023-02-28T00:17:21.971Z,90.69
2023-02-28T00:19:51.845Z,91.68
2023-02-28T00:22:19.563Z,92.90
2023-02-28T00:24:46.435Z,93.73
2023-02-28T00:27:12.977Z,94.40
2023-02-28T00:29:39.433Z,94.45
2023-02-28T00:32:05.997Z,93.40
2023-02-28T00:34:33.523Z,92.34
2023-02-28T00:36:59.891Z,93.35
2023-02-28T00:39:26.268Z,93.80
2023-02-28T00:41:52.626Z,94.12
2023-02-28T00:44:19.011Z,94.01
2023-02-28T00:46:45.356Z,93.57
2023-02-28T00:49:11.716Z,93.13
2023-02-28T00:51:38.096Z,92.65
2023-02-28T00:54:04.677Z,93.10
2023-02-28T00:56:31.046Z,93.59
2023-02-28T00:58:57.598Z,94.32
2023-02-28T01:01:23.991Z,94.40
2023-02-28T01:03:50.540Z,94.62
2023-02-28T01:06:16.950Z,92.37
2023-02-28T01:08:43.497Z,91.73
2023-02-28T01:11:11.193Z,90.94
2023-02-28T01:13:37.656Z,90.93
2023-02-28T01:16:04.543Z,90.61
2023-02-28T01:18:31.582Z,90.64
2023-02-28T01:20:57.953Z,91.00
2023-02-28T01:23:24.549Z,91.61
2023-02-28T01:25:52.026Z,92.73
2023-02-28T01:28:18.361Z,93.39
2023-02-28T01:30:49.093Z,93.74
2023-02-28T01:33:15.461Z,93.34
2023-02-28T01:35:42.646Z,92.24
2023-02-28T01:38:21.207Z,91.04
2023-02-28T01:40:48.944Z,91.49
2023-02-28T01:43:44.611Z,86.36
2023-02-28T01:46:11.507Z,79.93
2023-02-28T01:48:42.823Z,83.11
2023-02-28T01:51:12.044Z,87.52
2023-02-28T01:53:43.514Z,88.79
2023-02-28T01:56:09.973Z,90.58
2023-02-28T01:58:36.328Z,92.35
2023-02-28T02:01:03.934Z,92.32
2023-02-28T02:03:30.371Z,92.76
2023-02-28T02:05:56.771Z,91.83
2023-02-28T02:08:27.717Z,90.31
2023-02-28T02:11:00.631Z,90.61
2023-02-28T02:13:59.475Z,91.15
2023-02-28T02:16:52.117Z,92.75
2023-02-28T02:19:46.231Z,93.81
2023-02-28T02:22:27.667Z,93.55
2023-02-28T02:25:13.178Z,92.73
2023-02-28T02:27:58.527Z,91.17
2023-02-28T02:30:24.851Z,89.50
2023-02-28T02:33:10.188Z,88.15
2023-02-28T02:35:50.995Z,82.64
2023-02-28T02:38:38.064Z,77.35
2023-02-28T02:41:16.784Z,73.51
2023-02-28T02:43:46.910Z,71.03
2023-02-28T02:46:16.366Z,69.37
2023-02-28T02:48:42.994Z,64.47
2023-02-28T02:51:13.411Z,58.12
2023-02-28T02:53:50.430Z,51.00
2023-02-28T02:56:21.224Z,49.19
2023-02-28T02:58:48.177Z,52.84
2023-02-28T03:01:28.671Z,55.97
2023-02-28T03:03:59.704Z,61.14
2023-02-28T03:06:26.472Z,65.02
2023-02-28T03:08:52.844Z,66.14
2023-02-28T03:11:21.420Z,68.69
2023-02-28T03:14:10.808Z,69.52
2023-02-28T03:16:48.272Z,70.86
2023-02-28T03:19:52.462Z,70.39
2023-02-28T03:22:29.092Z,69.02
2023-02-28T03:25:02.771Z,68.53
2023-02-28T03:27:34.206Z,68.60
2023-02-28T03:30:25.104Z,69.37
2023-02-28T03:33:06.457Z,68.86
2023-02-28T03:35:45.880Z,67.51
2023-02-28T03:38:30.643Z,64.67
2023-02-28T03:41:07.914Z,61.68
2023-02-28T03:43:36.320Z,63.45
2023-02-28T03:46:04.177Z,62.01
2023-02-28T03:48:58.604Z,64.43
2023-02-28T03:51:25.452Z,65.14
2023-02-28T03:53:54.043Z,64.87
2023-02-28T03:56:41.814Z,65.32
2023-02-28T03:59:27.641Z,65.37
2023-02-28T04:01:54.062Z,63.64
2023-02-28T04:04:20.427Z,64.33
2023-02-28T04:06:46.889Z,64.62
2023-02-28T04:09:14.605Z,65.29
2023-02-28T04:11:45.024Z,65.93
2023-02-28T04:14:11.827Z,65.80
2023-02-28T04:16:40.196Z,63.71
2023-02-28T04:19:07.384Z,61.57
2023-02-28T04:21:44.052Z,62.45
2023-02-28T04:24:15.121Z,66.67
2023-02-28T04:26:50.061Z,70.29
2023-02-28T04:29:24.519Z,72.61
2023-02-28T04:31:51.350Z,73.45
2023-02-28T04:34:19.871Z,73.65
2023-02-28T04:36:46.916Z,74.97
2023-02-28T04:39:13.517Z,75.19
2023-02-28T04:41:39.920Z,74.87
2023-02-28T04:44:06.329Z,74.39
2023-02-28T04:46:32.752Z,74.60
2023-02-28T04:48:59.957Z,74.81
2023-02-28T04:51:26.340Z,74.30
2023-02-28T04:53:53.069Z,74.30
2023-02-28T04:56:19.643Z,72.30
2023-02-28T04:58:46.267Z,72.60
2023-02-28T05:01:39.023Z,73.37
2023-02-28T05:04:05.668Z,73.80
2023-02-28T05:06:33.249Z,74.18
2023-02-28T05:08:59.886Z,74.24
2023-02-28T05:11:36.314Z,74.91
2023-02-28T05:14:08.160Z,75.48
2023-02-28T05:16:34.541Z,75.78
2023-02-28T05:19:00.914Z,75.43
2023-02-28T05:21:32.770Z,74.80
2023-02-28T05:24:00.747Z,73.82
2023-02-28T05:26:27.482Z,74.58
2023-02-28T05:28:54.129Z,75.32
2023-02-28T05:31:20.628Z,76.07
2023-02-28T05:33:47.150Z,77.06
2023-02-28T05:36:13.781Z,76.92
2023-02-28T05:38:40.296Z,77.26
2023-02-28T05:41:10.265Z,76.59
2023-02-28T05:43:38.018Z,76.67
2023-02-28T05:46:06.568Z,76.24
2023-02-28T05:48:34.138Z,76.84
2023-02-28T05:51:00.898Z,77.14
2023-02-28T05:53:27.410Z,78.14
2023-02-28T05:55:53.996Z,77.83
2023-02-28T05:58:20.436Z,78.64
2023-02-28T06:00:46.804Z,79.21
2023-02-28T06:03:13.143Z,78.89
2023-02-28T06:05:39.549Z,79.53
2023-02-28T06:08:07.937Z,79.33
2023-02-28T06:10:35.467Z,78.46
2023-02-28T06:13:03.441Z,79.25
2023-02-28T06:15:29.963Z,79.68
2023-02-28T06:17:59.476Z,78.42
2023-02-28T06:20:30.157Z,78.87
2023-02-28T06:22:59.523Z,79.76
2023-02-28T06:25:27.329Z,79.96
2023-02-28T06:27:54.237Z,78.94
2023-02-28T06:30:24.730Z,78.32
2023-02-28T06:32:51.064Z,78.16
2023-02-28T06:35:17.711Z,78.10
2023-02-28T06:37:44.884Z,76.74
2023-02-28T06:40:11.807Z,76.19
2023-02-28T06:42:38.182Z,76.29
2023-02-28T06:45:09.937Z,76.34
2023-02-28T06:47:37.493Z,77.08
2023-02-28T06:50:04.304Z,76.52
2023-02-28T06:52:30.705Z,75.66
2023-02-28T06:55:01.072Z,76.49
2023-02-28T06:57:32.154Z,75.52
2023-02-28T07:00:02.005Z,75.32
2023-02-28T07:02:28.518Z,75.00
2023-02-28T07:04:55.203Z,75.97
2023-02-28T07:07:21.836Z,74.94
2023-02-28T07:09:48.200Z,74.32
2023-02-28T07:12:14.604Z,72.59
2023-02-28T07:14:40.951Z,70.67
2023-02-28T07:17:12.862Z,69.43
2023-02-28T07:19:40.073Z,71.25
2023-02-28T07:22:06.997Z,72.14
2023-02-28T07:24:33.408Z,73.61
2023-02-28T07:27:00.332Z,73.90
2023-02-28T07:29:26.845Z,72.86
2023-02-28T07:31:54.101Z,71.74
2023-02-28T07:34:21.577Z,70.55
2023-02-28T07:36:47.994Z,69.36
2023-02-28T07:39:14.356Z,68.62
2023-02-28T07:41:44.620Z,69.45
2023-02-28T07:44:11.704Z,71.12
2023-02-28T07:46:38.354Z,73.71
2023-02-28T07:49:05.216Z,74.04
2023-02-28T07:51:31.893Z,74.79
2023-02-28T07:53:58.459Z,75.24
2023-02-28T07:56:24.937Z,77.71
2023-02-28T07:58:51.280Z,85.19
2023-02-28T08:01:18.273Z,93.73
2023-02-28T08:03:44.869Z,97.96
2023-02-28T08:06:17.296Z,98.36
2023-02-28T08:08:43.624Z,99.91
2023-02-28T08:11:10.143Z,100.00
2023-02-28T08:13:36.588Z,100.00
2023-02-28T08:16:03.098Z,100.00
2023-02-28T08:18:29.732Z,100.00
2023-02-28T08:20:56.300Z,100.00
2023-02-28T08:23:22.656Z,100.00
2023-02-28T08:25:58.089Z,100.00
2023-02-28T08:28:26.998Z,100.00
2023-02-28T08:30:53.544Z,100.00
2023-02-28T08:33:20.166Z,100.00
2023-02-28T08:35:46.546Z,100.00
2023-02-28T08:38:12.927Z,100.00
2023-02-28T08:40:39.549Z,100.00
2023-02-28T08:43:05.895Z,100.00
2023-02-28T08:45:32.314Z,100.00
2023-02-28T08:47:58.752Z,100.00
2023-02-28T08:50:25.211Z,100.00
2023-02-28T08:52:51.627Z,100.00
2023-02-28T08:55:18.212Z,100.00
2023-02-28T08:57:44.596Z,100.00
2023-02-28T09:00:14.421Z,100.00
2023-02-28T09:02:41.661Z,100.00
2023-02-28T09:05:08.965Z,100.00
2023-02-28T09:07:35.357Z,100.00
2023-02-28T09:10:01.949Z,100.00
2023-02-28T09:12:28.891Z,100.00
2023-02-28T09:14:55.251Z,100.00
2023-02-28T09:17:21.681Z,100.00
2023-02-28T09:19:51.069Z,100.00
2023-02-28T09:22:17.551Z,100.00
2023-02-28T09:24:45.507Z,100.00
2023-02-28T09:27:12.044Z,100.00
2023-02-28T09:29:38.382Z,100.00
2023-02-28T09:32:06.657Z,100.00
2023-02-28T09:34:33.267Z,100.00
2023-02-28T09:36:59.796Z,100.00
2023-02-28T09:39:27.726Z,100.00
2023-02-28T09:41:55.241Z,100.00
2023-02-28T09:44:25.151Z,100.00
2023-02-28T09:46:55.421Z,100.00
2023-02-28T09:49:24.782Z,100.00
2023-02-28T09:51:59.722Z,100.00
2023-02-28T09:54:29.052Z,100.00
2023-02-28T09:57:05.995Z,100.00
2023-02-28T09:59:54.388Z,100.00
2023-02-28T10:02:48.303Z,100.00
2023-02-28T10:05:19.800Z,100.00
2023-02-28T10:07:49.279Z,100.00
2023-02-28T10:10:25.171Z,100.00
2023-02-28T10:12:53.800Z,100.00
2023-02-28T10:15:20.144Z,100.00
2023-02-28T10:17:55.208Z,100.00
2023-02-28T10:20:32.368Z,100.00
2023-02-28T10:23:22.607Z,100.00
2023-02-28T10:26:01.258Z,100.00
2023-02-28T10:28:28.019Z,100.00
2023-02-28T10:30:54.600Z,100.00
2023-02-28T10:33:23.995Z,100.00
2023-02-28T10:35:50.805Z,100.00
2023-02-28T10:38:26.721Z,100.00
2023-02-28T10:40:53.108Z,100.00
2023-02-28T10:43:20.838Z,100.00
2023-02-28T10:46:00.683Z,100.00
2023-02-28T10:48:30.660Z,100.00
2023-02-28T10:50:58.790Z,100.00
2023-02-28T10:53:28.222Z,100.00
2023-02-28T10:56:04.804Z,100.00
2023-02-28T10:58:32.861Z,100.00
2023-02-28T11:00:59.904Z,100.00
2023-02-28T11:03:36.105Z,100.00
2023-02-28T11:06:22.322Z,100.00
2023-02-28T11:09:04.881Z,100.00
2023-02-28T11:11:32.717Z,100.00
2023-02-28T11:14:05.024Z,100.00
2023-02-28T11:16:35.964Z,100.00
2023-02-28T11:19:02.418Z,100.00
2023-02-28T11:21:30.139Z,100.00
2023-02-28T11:24:05.393Z,100.00
2023-02-28T11:26:45.511Z,100.00
2023-02-28T11:29:17.290Z,100.00
2023-02-28T11:31:43.846Z,100.00
2023-02-28T11:34:24.364Z,100.00
2023-02-28T11:36:50.710Z,100.00
2023-02-28T11:39:17.107Z,100.00
2023-02-28T11:42:11.603Z,100.00
2023-02-28T11:44:59.225Z,100.00
2023-02-28T11:47:39.080Z,100.00
2023-02-28T11:50:41.175Z,100.00
2023-02-28T11:53:46.074Z,100.00
2023-02-28T11:56:30.996Z,100.00
2023-02-28T11:59:19.223Z,100.00
2023-02-28T12:01:54.904Z,100.00
2023-02-28T12:04:43.774Z,100.00
2023-02-28T12:07:26.782Z,100.00
2023-02-28T12:10:03.107Z,100.00
2023-02-28T12:13:08.113Z,100.00
2023-02-28T12:15:55.703Z,100.00
2023-02-28T12:18:31.003Z,100.00
2023-02-28T12:21:16.459Z,100.00
2023-02-28T12:24:00.506Z,100.00
2023-02-28T12:26:47.871Z,100.00
2023-02-28T12:29:27.052Z,99.40
2023-02-28T12:32:14.809Z,100.00
2023-02-28T12:34:46.631Z,98.34
2023-02-28T12:37:39.567Z,99.35
2023-02-28T12:40:08.647Z,100.00
2023-02-28T12:42:39.592Z,98.32
2023-02-28T12:45:13.480Z,95.91
2023-02-28T12:47:39.871Z,97.21
2023-02-28T12:50:08.776Z,99.53
2023-02-28T12:52:54.220Z,98.93
2023-02-28T12:55:39.122Z,98.83
2023-02-28T12:58:11.508Z,100.00
2023-02-28T13:00:39.277Z,100.00
2023-02-28T13:03:34.262Z,100.00
2023-02-28T13:06:00.625Z,100.00
2023-02-28T13:08:39.009Z,100.00
2023-02-28T13:11:13.103Z,100.00
2023-02-28T13:13:46.226Z,99.26
2023-02-28T13:16:12.616Z,97.81
2023-02-28T13:18:46.470Z,99.31
2023-02-28T13:21:28.213Z,100.00
2023-02-28T13:24:00.852Z,100.00
2023-02-28T13:26:36.692Z,98.33
2023-02-28T13:29:23.872Z,98.06
2023-02-28T13:32:20.106Z,98.27
2023-02-28T13:34:52.626Z,98.01
2023-02-28T13:37:19.015Z,98.31
2023-02-28T13:39:52.550Z,95.70
2023-02-28T13:42:31.180Z,95.52
2023-02-28T13:45:07.190Z,94.73
2023-02-28T13:47:39.867Z,92.49
2023-02-28T13:50:21.406Z,92.72
2023-02-28T13:53:23.493Z,92.21
2023-02-28T13:56:11.394Z,91.74
2023-02-28T13:58:53.114Z,96.18
2023-02-28T14:01:48.503Z,92.34
2023-02-28T14:04:27.528Z,93.09
2023-02-28T14:06:54.973Z,90.87
2023-02-28T14:09:30.354Z,93.16
2023-02-28T14:11:56.984Z,92.49
2023-02-28T14:14:35.566Z,91.62
2023-02-28T14:17:10.532Z,91.84
2023-02-28T14:19:37.950Z,91.96
2023-02-28T14:22:13.331Z,92.30
2023-02-28T14:24:42.722Z,91.84
2023-02-28T14:27:18.482Z,92.66
2023-02-28T14:29:47.902Z,93.18
2023-02-28T14:32:34.098Z,92.20
2023-02-28T14:35:17.907Z,90.53
2023-02-28T14:37:44.297Z,89.53
2023-02-28T14:40:16.832Z,91.42
2023-02-28T14:42:48.151Z,92.69
2023-02-28T14:45:19.654Z,93.00
2023-02-28T14:47:46.048Z,93.14
2023-02-28T14:50:20.502Z,94.19
2023-02-28T14:52:46.871Z,90.79
2023-02-28T14:55:16.412Z,91.71
2023-02-28T14:57:51.452Z,91.66
2023-02-28T15:00:27.895Z,92.79
2023-02-28T15:02:55.014Z,91.65
2023-02-28T15:05:25.895Z,93.18
2023-02-28T15:08:04.363Z,95.39
2023-02-28T15:10:31.569Z,92.49
2023-02-28T15:13:12.327Z,91.87
2023-02-28T15:16:02.774Z,92.44
2023-02-28T15:18:33.270Z,94.34
2023-02-28T15:21:01.688Z,94.20
2023-02-28T15:23:28.050Z,94.17
2023-02-28T15:25:54.453Z,93.87
2023-02-28T15:28:21.626Z,94.60
2023-02-28T15:30:59.713Z,96.68
2023-02-28T15:33:30.701Z,95.50
2023-02-28T15:36:08.282Z,96.09
2023-02-28T15:38:35.993Z,94.60
2023-02-28T15:41:02.473Z,93.90
2023-02-28T15:43:33.109Z,94.72
2023-02-28T15:46:19.740Z,96.14
2023-02-28T15:48:54.107Z,96.78
2023-02-28T15:51:30.090Z,95.02
2023-02-28T15:54:06.645Z,95.26
2023-02-28T15:56:37.465Z,95.70
2023-02-28T15:59:05.783Z,98.19
2023-02-28T16:01:36.470Z,98.59
2023-02-28T16:04:15.367Z,99.55
2023-02-28T16:06:45.804Z,98.87
2023-02-28T16:09:16.471Z,99.11
2023-02-28T16:11:50.312Z,97.90
2023-02-28T16:14:21.308Z,98.61
2023-02-28T16:16:49.530Z,98.90
2023-02-28T16:19:16.218Z,99.83
2023-02-28T16:21:42.606Z,100.00
2023-02-28T16:24:09.027Z,100.00
2023-02-28T16:26:35.436Z,100.00
2023-02-28T16:29:02.353Z,100.00
2023-02-28T16:31:29.236Z,100.00
2023-02-28T16:33:57.979Z,100.00
2023-02-28T16:36:28.529Z,100.00
2023-02-28T16:38:55.576Z,100.00
2023-02-28T16:41:23.364Z,100.00
2023-02-28T16:43:51.135Z,100.00
2023-02-28T16:46:17.892Z,100.00
2023-02-28T16:48:45.778Z,100.00
2023-02-28T16:51:13.493Z,100.00
2023-02-28T16:53:39.948Z,100.00
2023-02-28T16:56:08.008Z,100.00
2023-02-28T16:58:36.517Z,100.00
2023-02-28T17:01:03.956Z,100.00
2023-02-28T17:03:33.681Z,100.00
2023-02-28T17:06:00.473Z,100.00
2023-02-28T17:08:27.587Z,100.00
2023-02-28T17:10:54.196Z,100.00
2023-02-28T17:13:20.562Z,100.00
2023-02-28T17:15:47.480Z,100.00
2023-02-28T17:18:19.782Z,100.00
2023-02-28T17:20:46.720Z,100.00
2023-02-28T17:23:13.090Z,100.00
2023-02-28T17:25:39.465Z,100.00
2023-02-28T17:28:06.132Z,100.00
2023-02-28T17:30:34.087Z,100.00
2023-02-28T17:33:00.693Z,100.00
2023-02-28T17:35:27.741Z,100.00
2023-02-28T17:37:54.190Z,100.00
2023-02-28T17:40:22.458Z,100.00
2023-02-28T17:42:48.823Z,100.00
2023-02-28T17:45:15.591Z,100.00
2023-02-28T17:47:43.083Z,100.00
2023-02-28T17:50:17.603Z,100.00
2023-02-28T17:52:44.069Z,100.00
2023-02-28T17:55:11.181Z,100.00
2023-02-28T17:57:37.529Z,100.00
2023-02-28T18:00:07.534Z,100.00
2023-02-28T18:02:34.239Z,100.00
2023-02-28T18:05:00.714Z,100.00
2023-02-28T18:07:27.114Z,100.00
2023-02-28T18:09:53.552Z,100.00
2023-02-28T18:12:20.094Z,100.00
2023-02-28T18:14:48.520Z,100.00
2023-02-28T18:17:14.960Z,100.00
2023-02-28T18:19:41.825Z,100.00
2023-02-28T18:22:08.670Z,100.00
2023-02-28T18:24:35.540Z,100.00
2023-02-28T18:27:02.139Z,100.00
2023-02-28T18:29:28.516Z,100.00
2023-02-28T18:31:55.887Z,100.00
2023-02-28T18:34:23.077Z,100.00
2023-02-28T18:36:50.837Z,100.00
2023-02-28T18:39:17.635Z,100.00
2023-02-28T18:41:43.998Z,100.00
2023-02-28T18:44:19.096Z,100.00
2023-02-28T18:46:46.240Z,100.00
2023-02-28T18:49:12.736Z,100.00
2023-02-28T18:51:39.158Z,100.00
2023-02-28T18:54:05.576Z,100.00
2023-02-28T18:56:32.121Z,100.00
2023-02-28T18:58:58.710Z,100.00
2023-02-28T19:01:32.134Z,100.00
2023-02-28T19:04:00.711Z,100.00
2023-02-28T19:06:28.185Z,100.00
2023-02-28T19:08:58.757Z,100.00
2023-02-28T19:11:25.284Z,100.00
2023-02-28T19:13:51.738Z,100.00
2023-02-28T19:16:19.542Z,100.00
2023-02-28T19:18:46.010Z,100.00
2023-02-28T19:21:13.669Z,100.00
2023-02-28T19:23:40.660Z,100.00
2023-02-28T19:26:08.082Z,100.00
2023-02-28T19:28:34.591Z,100.00
2023-02-28T19:31:01.148Z,100.00
2023-02-28T19:33:27.499Z,100.00
2023-02-28T19:35:55.215Z,100.00
2023-02-28T19:38:21.665Z,100.00
2023-02-28T19:40:48.068Z,100.00
2023-02-28T19:43:14.425Z,100.00
2023-02-28T19:45:40.837Z,100.00
2023-02-28T19:48:09.751Z,100.00
2023-02-28T19:50:37.525Z,100.00
2023-02-28T19:53:04.236Z,100.00
2023-02-28T19:55:30.646Z,100.00
2023-02-28T19:57:56.975Z,100.00
2023-02-28T20:00:23.486Z,100.00
2023-02-28T20:02:49.837Z,100.00
2023-02-28T20:05:16.222Z,100.00
2023-02-28T20:07:42.588Z,100.00
2023-02-28T20:10:09.812Z,100.00
2023-02-28T20:12:36.267Z,100.00
2023-02-28T20:15:02.753Z,100.00
2023-02-28T20:17:30.295Z,100.00
2023-02-28T20:19:56.744Z,100.00
2023-02-28T20:22:23.148Z,100.00
2023-02-28T20:24:49.619Z,100.00
2023-02-28T20:27:16.048Z,100.00
2023-02-28T20:29:42.468Z,100.00
2023-02-28T20:32:08.940Z,100.00
2023-02-28T20:34:35.486Z,100.00
2023-02-28T20:37:01.932Z,100.00
2023-02-28T20:39:28.319Z,100.00
2023-02-28T20:41:54.700Z,100.00
2023-02-28T20:44:21.119Z,100.00
2023-02-28T20:46:47.580Z,100.00
2023-02-28T20:49:15.078Z,100.00
2023-02-28T20:51:42.249Z,100.00
2023-02-28T20:54:08.895Z,100.00
2023-02-28T20:56:35.359Z,100.00
2023-02-28T20:59:01.728Z,100.00
2023-02-28T21:01:28.482Z,100.00
2023-02-28T21:03:56.146Z,100.00
2023-02-28T21:06:28.350Z,100.00
2023-02-28T21:08:55.077Z,100.00
2023-02-28T21:11:24.455Z,100.00
2023-02-28T21:13:54.349Z,100.00
2023-02-28T21:16:24.395Z,100.00
2023-02-28T21:18:52.726Z,100.00
2023-02-28T21:21:20.724Z,100.00
2023-02-28T21:23:47.288Z,100.00
2023-02-28T21:26:18.696Z,100.00
2023-02-28T21:28:58.600Z,100.00
2023-02-28T21:31:26.077Z,100.00
2023-02-28T21:33:54.023Z,100.00
2023-02-28T21:36:22.138Z,100.00
2023-02-28T21:38:51.156Z,100.00
2023-02-28T21:41:19.208Z,100.00
2023-02-28T21:43:45.867Z,100.00
2023-02-28T21:46:19.737Z,100.00
2023-02-28T21:48:48.843Z,100.00
2023-02-28T21:51:22.480Z,100.00
2023-02-28T21:53:49.006Z,100.00
2023-02-28T21:56:20.796Z,100.00
2023-02-28T21:58:47.349Z,100.00
2023-02-28T22:01:15.733Z,100.00
2023-02-28T22:03:42.482Z,100.00
2023-02-28T22:06:22.167Z,100.00
2023-02-28T22:08:50.584Z,100.00
2023-02-28T22:11:17.554Z,100.00
2023-02-28T22:13:43.889Z,100.00
2023-02-28T22:16:12.751Z,100.00
2023-02-28T22:18:39.642Z,100.00
2023-02-28T22:21:06.486Z,100.00
2023-02-28T22:23:32.932Z,100.00
2023-02-28T22:26:07.126Z,100.00
2023-02-28T22:28:33.684Z,100.00
2023-02-28T22:31:00.355Z,100.00
2023-02-28T22:33:27.133Z,100.00
2023-02-28T22:35:53.810Z,100.00
2023-02-28T22:38:20.261Z,100.00
2023-02-28T22:40:46.617Z,100.00
2023-02-28T22:43:13.148Z,100.00
2023-02-28T22:45:39.934Z,100.00
2023-02-28T22:48:07.567Z,100.00
2023-02-28T22:50:34.095Z,100.00
2023-02-28T22:53:00.758Z,100.00
2023-02-28T22:55:27.241Z,100.00
2023-02-28T22:57:53.681Z,100.00
2023-02-28T23:00:20.335Z,100.00
2023-02-28T23:02:47.229Z,100.00
2023-02-28T23:05:14.151Z,100.00
2023-02-28T23:07:40.842Z,100.00
2023-02-28T23:10:12.219Z,100.00
2023-02-28T23:12:50.007Z,100.00
2023-02-28T23:15:18.184Z,100.00
2023-02-28T23:17:45.128Z,100.00
2023-02-28T23:20:16.307Z,100.00
2023-02-28T23:22:46.484Z,100.00
2023-02-28T23:25:13.944Z,100.00
2023-02-28T23:27:40.552Z,100.00
2023-02-28T23:30:07.819Z,100.00
2023-02-28T23:32:34.293Z,100.00
2023-02-28T23:35:00.856Z,100.00
2023-02-28T23:37:27.193Z,100.00
2023-02-28T23:39:53.666Z,100.00
2023-02-28T23:42:20.395Z,100.00
2023-02-28T23:44:46.784Z,100.00
2023-02-28T23:47:14.076Z,100.00
2023-02-28T23:49:40.484Z,100.00
2023-02-28T23:52:06.912Z,100.00
2023-02-28T23:54:33.258Z,100.00
2023-02-28T23:56:59.635Z,100.00
2023-02-28T23:59:26.017Z,100.00
